sensor_id;sensor_type;location;lat;lon;timestamp;temperature;humidity
2913;DHT22;1466;48.778;9.166;2023-05-07T00:02:06;18.50;97.40
2913;DHT22;1466;48.778;9.166;2023-05-07T00:04:32;18.50;97.70
2913;DHT22;1466;48.778;9.166;2023-05-07T00:07:02;18.40;97.80
2913;DHT22;1466;48.778;9.166;2023-05-07T00:09:28;18.40;97.80
2913;DHT22;1466;48.778;9.166;2023-05-07T00:11:53;18.40;97.90
2913;DHT22;1466;48.778;9.166;2023-05-07T00:14:19;18.30;98.10
2913;DHT22;1466;48.778;9.166;2023-05-07T00:16:44;18.30;98.20
2913;DHT22;1466;48.778;9.166;2023-05-07T00:19:10;18.30;98.30
2913;DHT22;1466;48.778;9.166;2023-05-07T00:21:35;18.30;98.30
2913;DHT22;1466;48.778;9.166;2023-05-07T00:24:01;18.30;98.40
2913;DHT22;1466;48.778;9.166;2023-05-07T00:26:26;18.40;98.40
2913;DHT22;1466;48.778;9.166;2023-05-07T00:28:52;18.40;98.30
2913;DHT22;1466;48.778;9.166;2023-05-07T00:31:18;18.40;98.30
2913;DHT22;1466;48.778;9.166;2023-05-07T00:33:43;18.30;98.30
2913;DHT22;1466;48.778;9.166;2023-05-07T00:36:09;18.20;98.40
2913;DHT22;1466;48.778;9.166;2023-05-07T00:38:34;18.20;98.50
2913;DHT22;1466;48.778;9.166;2023-05-07T00:41:00;18.10;98.50
2913;DHT22;1466;48.778;9.166;2023-05-07T00:43:27;18.10;98.60
2913;DHT22;1466;48.778;9.166;2023-05-07T00:45:53;18.10;98.70
2913;DHT22;1466;48.778;9.166;2023-05-07T00:48:19;18.00;98.70
2913;DHT22;1466;48.778;9.166;2023-05-07T00:50:45;18.00;98.80
2913;DHT22;1466;48.778;9.166;2023-05-07T00:53:11;18.00;98.90
2913;DHT22;1466;48.778;9.166;2023-05-07T00:55:38;18.00;98.90
2913;DHT22;1466;48.778;9.166;2023-05-07T00:58:04;17.90;99.30
2913;DHT22;1466;48.778;9.166;2023-05-07T01:00:29;17.90;99.00
2913;DHT22;1466;48.778;9.166;2023-05-07T01:02:55;17.90;99.10
2913;DHT22;1466;48.778;9.166;2023-05-07T01:05:23;17.90;99.20
2913;DHT22;1466;48.778;9.166;2023-05-07T01:07:51;17.90;99.10
2913;DHT22;1466;48.778;9.166;2023-05-07T01:10:17;17.90;99.10
2913;DHT22;1466;48.778;9.166;2023-05-07T01:12:44;17.90;99.10
2913;DHT22;1466;48.778;9.166;2023-05-07T01:15:11;17.90;99.20
2913;DHT22;1466;48.778;9.166;2023-05-07T01:17:39;17.90;99.30
2913;DHT22;1466;48.778;9.166;2023-05-07T01:20:06;17.90;99.30
2913;DHT22;1466;48.778;9.166;2023-05-07T01:22:33;17.90;99.30
2913;DHT22;1466;48.778;9.166;2023-05-07T01:25:00;17.80;99.30
2913;DHT22;1466;48.778;9.166;2023-05-07T01:27:27;17.70;99.30
2913;DHT22;1466;48.778;9.166;2023-05-07T01:29:52;17.70;99.40
2913;DHT22;1466;48.778;9.166;2023-05-07T01:32:28;17.70;99.50
2913;DHT22;1466;48.778;9.166;2023-05-07T01:34:55;17.60;99.50
2913;DHT22;1466;48.778;9.166;2023-05-07T01:37:23;17.60;99.70
2913;DHT22;1466;48.778;9.166;2023-05-07T01:39:50;17.60;99.80
2913;DHT22;1466;48.778;9.166;2023-05-07T01:42:15;17.70;99.70
2913;DHT22;1466;48.778;9.166;2023-05-07T01:44:41;17.60;99.80
2913;DHT22;1466;48.778;9.166;2023-05-07T01:47:07;17.50;99.80
2913;DHT22;1466;48.778;9.166;2023-05-07T01:49:34;17.50;99.90
2913;DHT22;1466;48.778;9.166;2023-05-07T01:52:00;17.50;99.90
2913;DHT22;1466;48.778;9.166;2023-05-07T01:54:26;17.40;99.90
2913;DHT22;1466;48.778;9.166;2023-05-07T01:56:58;17.40;99.90
2913;DHT22;1466;48.778;9.166;2023-05-07T01:59:24;17.40;99.90
2913;DHT22;1466;48.778;9.166;2023-05-07T02:01:49;17.40;99.90
2913;DHT22;1466;48.778;9.166;2023-05-07T02:04:15;17.30;99.90
2913;DHT22;1466;48.778;9.166;2023-05-07T02:06:40;17.30;99.90
2913;DHT22;1466;48.778;9.166;2023-05-07T02:09:06;17.40;99.90
2913;DHT22;1466;48.778;9.166;2023-05-07T02:11:34;17.40;99.90
2913;DHT22;1466;48.778;9.166;2023-05-07T02:14:00;17.40;99.90
2913;DHT22;1466;48.778;9.166;2023-05-07T02:16:25;17.30;99.90
2913;DHT22;1466;48.778;9.166;2023-05-07T02:18:51;17.30;99.90
2913;DHT22;1466;48.778;9.166;2023-05-07T02:21:17;17.30;99.90
2913;DHT22;1466;48.778;9.166;2023-05-07T02:23:42;17.30;99.90
2913;DHT22;1466;48.778;9.166;2023-05-07T02:26:08;17.40;99.90
2913;DHT22;1466;48.778;9.166;2023-05-07T02:28:34;17.40;99.90
2913;DHT22;1466;48.778;9.166;2023-05-07T02:31:05;17.40;99.90
2913;DHT22;1466;48.778;9.166;2023-05-07T02:33:31;17.40;99.90
2913;DHT22;1466;48.778;9.166;2023-05-07T02:35:56;17.40;99.90
2913;DHT22;1466;48.778;9.166;2023-05-07T02:38:22;17.30;99.90
2913;DHT22;1466;48.778;9.166;2023-05-07T02:40:48;17.30;99.90
2913;DHT22;1466;48.778;9.166;2023-05-07T02:43:14;17.30;99.90
2913;DHT22;1466;48.778;9.166;2023-05-07T02:45:39;17.30;99.90
2913;DHT22;1466;48.778;9.166;2023-05-07T02:48:05;17.30;99.90
2913;DHT22;1466;48.778;9.166;2023-05-07T02:50:31;17.30;99.90
2913;DHT22;1466;48.778;9.166;2023-05-07T02:52:58;17.30;99.90
2913;DHT22;1466;48.778;9.166;2023-05-07T02:55:23;17.30;99.90
2913;DHT22;1466;48.778;9.166;2023-05-07T02:57:49;17.30;99.90
2913;DHT22;1466;48.778;9.166;2023-05-07T03:00:17;17.20;99.90
2913;DHT22;1466;48.778;9.166;2023-05-07T03:02:43;17.20;99.90
2913;DHT22;1466;48.778;9.166;2023-05-07T03:05:09;17.10;99.90
2913;DHT22;1466;48.778;9.166;2023-05-07T03:07:36;17.10;99.90
2913;DHT22;1466;48.778;9.166;2023-05-07T03:10:02;17.00;99.90
2913;DHT22;1466;48.778;9.166;2023-05-07T03:12:27;17.00;99.90
2913;DHT22;1466;48.778;9.166;2023-05-07T03:14:53;16.90;99.90
2913;DHT22;1466;48.778;9.166;2023-05-07T03:17:20;16.90;99.90
2913;DHT22;1466;48.778;9.166;2023-05-07T03:19:45;16.90;99.90
2913;DHT22;1466;48.778;9.166;2023-05-07T03:22:11;17.00;99.90
2913;DHT22;1466;48.778;9.166;2023-05-07T03:24:36;17.10;99.90
2913;DHT22;1466;48.778;9.166;2023-05-07T03:27:02;17.20;99.90
2913;DHT22;1466;48.778;9.166;2023-05-07T03:29:28;17.20;99.90
2913;DHT22;1466;48.778;9.166;2023-05-07T03:31:53;17.00;99.90
2913;DHT22;1466;48.778;9.166;2023-05-07T03:34:19;17.00;99.90
2913;DHT22;1466;48.778;9.166;2023-05-07T03:36:48;16.90;99.90
2913;DHT22;1466;48.778;9.166;2023-05-07T03:39:14;16.80;99.90
2913;DHT22;1466;48.778;9.166;2023-05-07T03:41:39;16.80;99.90
2913;DHT22;1466;48.778;9.166;2023-05-07T03:44:05;16.70;99.90
2913;DHT22;1466;48.778;9.166;2023-05-07T03:46:31;16.70;99.90
2913;DHT22;1466;48.778;9.166;2023-05-07T03:48:58;16.70;99.90
2913;DHT22;1466;48.778;9.166;2023-05-07T03:51:23;16.70;99.90
2913;DHT22;1466;48.778;9.166;2023-05-07T03:53:50;16.60;99.90
2913;DHT22;1466;48.778;9.166;2023-05-07T03:56:18;16.60;99.90
2913;DHT22;1466;48.778;9.166;2023-05-07T03:58:44;16.60;99.90
2913;DHT22;1466;48.778;9.166;2023-05-07T04:01:10;16.80;99.90
2913;DHT22;1466;48.778;9.166;2023-05-07T04:03:36;16.90;99.90
2913;DHT22;1466;48.778;9.166;2023-05-07T04:06:01;16.90;99.90
2913;DHT22;1466;48.778;9.166;2023-05-07T04:08:27;17.00;99.90
2913;DHT22;1466;48.778;9.166;2023-05-07T04:10:59;16.90;99.90
2913;DHT22;1466;48.778;9.166;2023-05-07T04:13:25;16.80;99.90
2913;DHT22;1466;48.778;9.166;2023-05-07T04:15:52;16.80;99.90
2913;DHT22;1466;48.778;9.166;2023-05-07T04:18:17;16.80;99.90
2913;DHT22;1466;48.778;9.166;2023-05-07T04:20:43;16.70;99.90
2913;DHT22;1466;48.778;9.166;2023-05-07T04:23:09;16.60;99.90
2913;DHT22;1466;48.778;9.166;2023-05-07T04:25:34;16.40;99.90
2913;DHT22;1466;48.778;9.166;2023-05-07T04:28:00;16.20;99.90
2913;DHT22;1466;48.778;9.166;2023-05-07T04:30:26;16.30;99.90
2913;DHT22;1466;48.778;9.166;2023-05-07T04:32:52;16.30;99.90
2913;DHT22;1466;48.778;9.166;2023-05-07T04:35:18;16.30;99.90
2913;DHT22;1466;48.778;9.166;2023-05-07T04:37:43;16.40;99.90
2913;DHT22;1466;48.778;9.166;2023-05-07T04:40:09;16.40;99.90
2913;DHT22;1466;48.778;9.166;2023-05-07T04:42:35;16.50;99.90
2913;DHT22;1466;48.778;9.166;2023-05-07T04:45:01;16.50;99.90
2913;DHT22;1466;48.778;9.166;2023-05-07T04:47:27;16.60;99.90
2913;DHT22;1466;48.778;9.166;2023-05-07T04:49:53;16.60;99.90
2913;DHT22;1466;48.778;9.166;2023-05-07T04:52:18;16.70;99.90
2913;DHT22;1466;48.778;9.166;2023-05-07T04:54:44;16.70;99.90
2913;DHT22;1466;48.778;9.166;2023-05-07T04:57:09;16.70;99.90
2913;DHT22;1466;48.778;9.166;2023-05-07T04:59:35;16.80;99.90
2913;DHT22;1466;48.778;9.166;2023-05-07T05:02:00;16.90;99.90
2913;DHT22;1466;48.778;9.166;2023-05-07T05:04:29;16.90;99.90
2913;DHT22;1466;48.778;9.166;2023-05-07T05:06:58;16.90;99.90
2913;DHT22;1466;48.778;9.166;2023-05-07T05:09:23;16.90;99.90
2913;DHT22;1466;48.778;9.166;2023-05-07T05:11:49;16.90;99.90
2913;DHT22;1466;48.778;9.166;2023-05-07T05:14:14;16.90;99.90
2913;DHT22;1466;48.778;9.166;2023-05-07T05:16:40;17.00;99.90
2913;DHT22;1466;48.778;9.166;2023-05-07T05:19:06;17.00;99.90
2913;DHT22;1466;48.778;9.166;2023-05-07T05:21:32;17.00;99.90
2913;DHT22;1466;48.778;9.166;2023-05-07T05:23:58;16.90;99.90
2913;DHT22;1466;48.778;9.166;2023-05-07T05:26:23;16.70;99.90
2913;DHT22;1466;48.778;9.166;2023-05-07T05:28:49;16.70;99.90
2913;DHT22;1466;48.778;9.166;2023-05-07T05:31:16;16.70;99.90
2913;DHT22;1466;48.778;9.166;2023-05-07T05:33:41;16.70;99.90
2913;DHT22;1466;48.778;9.166;2023-05-07T05:36:09;16.80;99.90
2913;DHT22;1466;48.778;9.166;2023-05-07T05:38:35;17.00;99.90
2913;DHT22;1466;48.778;9.166;2023-05-07T05:41:00;17.00;99.90
2913;DHT22;1466;48.778;9.166;2023-05-07T05:43:26;17.00;99.90
2913;DHT22;1466;48.778;9.166;2023-05-07T05:45:51;17.00;99.90
2913;DHT22;1466;48.778;9.166;2023-05-07T05:48:17;17.20;99.90
2913;DHT22;1466;48.778;9.166;2023-05-07T05:50:43;17.20;99.90
2913;DHT22;1466;48.778;9.166;2023-05-07T05:53:08;17.30;99.90
2913;DHT22;1466;48.778;9.166;2023-05-07T05:55:34;17.30;99.90
2913;DHT22;1466;48.778;9.166;2023-05-07T05:58:00;17.40;99.90
2913;DHT22;1466;48.778;9.166;2023-05-07T06:00:27;17.40;99.90
2913;DHT22;1466;48.778;9.166;2023-05-07T06:02:52;17.40;99.90
2913;DHT22;1466;48.778;9.166;2023-05-07T06:05:18;17.40;99.90
2913;DHT22;1466;48.778;9.166;2023-05-07T06:07:43;17.50;99.90
2913;DHT22;1466;48.778;9.166;2023-05-07T06:10:09;17.50;99.90
2913;DHT22;1466;48.778;9.166;2023-05-07T06:12:35;17.60;99.90
2913;DHT22;1466;48.778;9.166;2023-05-07T06:15:01;17.70;99.90
2913;DHT22;1466;48.778;9.166;2023-05-07T06:17:27;17.70;99.90
2913;DHT22;1466;48.778;9.166;2023-05-07T06:19:52;17.80;99.90
2913;DHT22;1466;48.778;9.166;2023-05-07T06:22:18;17.70;99.90
2913;DHT22;1466;48.778;9.166;2023-05-07T06:24:44;17.60;99.90
2913;DHT22;1466;48.778;9.166;2023-05-07T06:27:10;17.60;99.90
2913;DHT22;1466;48.778;9.166;2023-05-07T06:29:35;17.70;99.90
2913;DHT22;1466;48.778;9.166;2023-05-07T06:34:33;17.70;99.90
2913;DHT22;1466;48.778;9.166;2023-05-07T06:36:59;17.70;99.90
2913;DHT22;1466;48.778;9.166;2023-05-07T06:39:25;17.70;99.90
2913;DHT22;1466;48.778;9.166;2023-05-07T06:41:50;17.70;99.90
2913;DHT22;1466;48.778;9.166;2023-05-07T06:44:16;17.70;99.90
2913;DHT22;1466;48.778;9.166;2023-05-07T06:46:41;17.80;99.90
2913;DHT22;1466;48.778;9.166;2023-05-07T06:49:07;17.80;99.90
2913;DHT22;1466;48.778;9.166;2023-05-07T06:51:33;17.90;99.90
2913;DHT22;1466;48.778;9.166;2023-05-07T06:53:59;17.90;99.90
2913;DHT22;1466;48.778;9.166;2023-05-07T06:56:24;18.00;99.90
2913;DHT22;1466;48.778;9.166;2023-05-07T06:58:50;18.00;99.90
2913;DHT22;1466;48.778;9.166;2023-05-07T07:01:16;18.10;99.90
2913;DHT22;1466;48.778;9.166;2023-05-07T07:03:41;18.30;99.90
2913;DHT22;1466;48.778;9.166;2023-05-07T07:06:07;18.30;99.90
2913;DHT22;1466;48.778;9.166;2023-05-07T07:08:32;18.40;99.90
2913;DHT22;1466;48.778;9.166;2023-05-07T07:10:59;18.50;99.90
2913;DHT22;1466;48.778;9.166;2023-05-07T07:13:25;18.60;99.90
2913;DHT22;1466;48.778;9.166;2023-05-07T07:15:51;18.60;99.90
2913;DHT22;1466;48.778;9.166;2023-05-07T07:18:18;18.80;99.90
2913;DHT22;1466;48.778;9.166;2023-05-07T07:20:44;18.80;99.90
2913;DHT22;1466;48.778;9.166;2023-05-07T07:23:10;18.90;99.90
2913;DHT22;1466;48.778;9.166;2023-05-07T07:25:35;19.00;99.90
2913;DHT22;1466;48.778;9.166;2023-05-07T07:28:01;19.10;99.90
2913;DHT22;1466;48.778;9.166;2023-05-07T07:30:26;19.20;99.90
2913;DHT22;1466;48.778;9.166;2023-05-07T07:32:52;19.40;99.90
2913;DHT22;1466;48.778;9.166;2023-05-07T07:35:18;19.50;99.90
2913;DHT22;1466;48.778;9.166;2023-05-07T07:37:43;19.70;99.90
2913;DHT22;1466;48.778;9.166;2023-05-07T07:40:09;19.80;99.90
2913;DHT22;1466;48.778;9.166;2023-05-07T07:42:35;19.90;99.90
2913;DHT22;1466;48.778;9.166;2023-05-07T07:45:01;20.10;99.90
2913;DHT22;1466;48.778;9.166;2023-05-07T07:47:26;20.30;99.90
2913;DHT22;1466;48.778;9.166;2023-05-07T07:49:52;20.50;99.90
2913;DHT22;1466;48.778;9.166;2023-05-07T07:52:18;20.60;99.50
2913;DHT22;1466;48.778;9.166;2023-05-07T07:54:44;20.70;99.60
2913;DHT22;1466;48.778;9.166;2023-05-07T07:57:10;20.80;99.50
2913;DHT22;1466;48.778;9.166;2023-05-07T07:59:35;20.90;99.40
2913;DHT22;1466;48.778;9.166;2023-05-07T08:02:01;21.10;99.20
2913;DHT22;1466;48.778;9.166;2023-05-07T08:04:26;21.20;99.00
2913;DHT22;1466;48.778;9.166;2023-05-07T08:06:52;21.30;98.70
2913;DHT22;1466;48.778;9.166;2023-05-07T08:09:19;21.30;98.70
2913;DHT22;1466;48.778;9.166;2023-05-07T08:11:45;21.40;98.60
2913;DHT22;1466;48.778;9.166;2023-05-07T08:14:11;21.40;98.50
2913;DHT22;1466;48.778;9.166;2023-05-07T08:16:37;21.40;98.20
2913;DHT22;1466;48.778;9.166;2023-05-07T08:19:02;21.40;98.00
2913;DHT22;1466;48.778;9.166;2023-05-07T08:21:28;21.40;98.00
2913;DHT22;1466;48.778;9.166;2023-05-07T08:23:54;21.50;97.90
2913;DHT22;1466;48.778;9.166;2023-05-07T08:26:19;21.60;97.80
2913;DHT22;1466;48.778;9.166;2023-05-07T08:28:45;21.60;97.40
2913;DHT22;1466;48.778;9.166;2023-05-07T08:31:11;21.70;97.40
2913;DHT22;1466;48.778;9.166;2023-05-07T08:33:37;21.80;97.40
2913;DHT22;1466;48.778;9.166;2023-05-07T08:36:04;21.90;97.20
2913;DHT22;1466;48.778;9.166;2023-05-07T08:38:30;22.00;97.20
2913;DHT22;1466;48.778;9.166;2023-05-07T08:40:56;22.10;97.10
2913;DHT22;1466;48.778;9.166;2023-05-07T08:43:23;22.10;96.90
2913;DHT22;1466;48.778;9.166;2023-05-07T08:45:53;22.20;96.90
2913;DHT22;1466;48.778;9.166;2023-05-07T08:48:22;22.30;96.70
2913;DHT22;1466;48.778;9.166;2023-05-07T08:50:50;22.40;96.50
2913;DHT22;1466;48.778;9.166;2023-05-07T08:53:17;22.50;96.30
2913;DHT22;1466;48.778;9.166;2023-05-07T08:55:43;22.50;96.10
2913;DHT22;1466;48.778;9.166;2023-05-07T08:58:08;22.60;96.10
2913;DHT22;1466;48.778;9.166;2023-05-07T09:00:36;22.70;95.90
2913;DHT22;1466;48.778;9.166;2023-05-07T09:03:02;22.70;95.70
2913;DHT22;1466;48.778;9.166;2023-05-07T09:05:28;22.80;95.50
2913;DHT22;1466;48.778;9.166;2023-05-07T09:07:53;22.80;95.40
2913;DHT22;1466;48.778;9.166;2023-05-07T09:10:21;23.00;95.40
2913;DHT22;1466;48.778;9.166;2023-05-07T09:12:47;23.20;95.00
2913;DHT22;1466;48.778;9.166;2023-05-07T09:15:13;23.30;94.80
2913;DHT22;1466;48.778;9.166;2023-05-07T09:17:38;23.30;94.50
2913;DHT22;1466;48.778;9.166;2023-05-07T09:20:07;23.50;94.30
2913;DHT22;1466;48.778;9.166;2023-05-07T09:22:35;23.60;94.30
2913;DHT22;1466;48.778;9.166;2023-05-07T09:25:01;23.60;94.00
2913;DHT22;1466;48.778;9.166;2023-05-07T09:27:27;23.70;93.80
2913;DHT22;1466;48.778;9.166;2023-05-07T09:29:52;23.80;93.90
2913;DHT22;1466;48.778;9.166;2023-05-07T09:32:18;24.30;93.60
2913;DHT22;1466;48.778;9.166;2023-05-07T09:34:44;25.10;92.70
2913;DHT22;1466;48.778;9.166;2023-05-07T09:37:12;25.70;91.80
2913;DHT22;1466;48.778;9.166;2023-05-07T09:39:45;26.30;90.80
2913;DHT22;1466;48.778;9.166;2023-05-07T09:42:12;26.70;89.80
2913;DHT22;1466;48.778;9.166;2023-05-07T09:44:38;26.90;87.30
2913;DHT22;1466;48.778;9.166;2023-05-07T09:47:07;27.10;86.40
2913;DHT22;1466;48.778;9.166;2023-05-07T09:49:36;27.10;85.20
2913;DHT22;1466;48.778;9.166;2023-05-07T09:52:03;26.90;84.50
2913;DHT22;1466;48.778;9.166;2023-05-07T09:54:32;26.80;84.30
2913;DHT22;1466;48.778;9.166;2023-05-07T09:56:59;26.70;84.30
2913;DHT22;1466;48.778;9.166;2023-05-07T09:59:27;26.60;83.90
2913;DHT22;1466;48.778;9.166;2023-05-07T10:01:56;26.50;83.40
2913;DHT22;1466;48.778;9.166;2023-05-07T10:04:24;26.40;83.30
2913;DHT22;1466;48.778;9.166;2023-05-07T10:06:50;26.30;83.80
2913;DHT22;1466;48.778;9.166;2023-05-07T10:09:16;26.20;84.10
2913;DHT22;1466;48.778;9.166;2023-05-07T10:11:42;26.00;84.60
2913;DHT22;1466;48.778;9.166;2023-05-07T10:14:09;25.90;85.20
2913;DHT22;1466;48.778;9.166;2023-05-07T10:16:36;25.80;85.60
2913;DHT22;1466;48.778;9.166;2023-05-07T10:19:06;25.60;86.00
2913;DHT22;1466;48.778;9.166;2023-05-07T10:21:37;25.50;86.30
2913;DHT22;1466;48.778;9.166;2023-05-07T10:24:16;25.40;87.00
2913;DHT22;1466;48.778;9.166;2023-05-07T10:26:48;25.40;87.00
2913;DHT22;1466;48.778;9.166;2023-05-07T10:29:21;25.40;86.90
2913;DHT22;1466;48.778;9.166;2023-05-07T10:34:23;25.40;87.00
2913;DHT22;1466;48.778;9.166;2023-05-07T10:36:50;25.60;86.80
2913;DHT22;1466;48.778;9.166;2023-05-07T10:39:17;25.80;86.30
2913;DHT22;1466;48.778;9.166;2023-05-07T10:41:43;25.90;85.80
2913;DHT22;1466;48.778;9.166;2023-05-07T10:44:08;26.00;85.40
2913;DHT22;1466;48.778;9.166;2023-05-07T10:46:34;26.10;84.50
2913;DHT22;1466;48.778;9.166;2023-05-07T10:51:27;25.90;84.00
2913;DHT22;1466;48.778;9.166;2023-05-07T10:56:37;25.70;84.70
2913;DHT22;1466;48.778;9.166;2023-05-07T11:04:21;25.90;84.50
2913;DHT22;1466;48.778;9.166;2023-05-07T11:12:17;25.90;85.10
2913;DHT22;1466;48.778;9.166;2023-05-07T11:14:43;25.90;84.20
2913;DHT22;1466;48.778;9.166;2023-05-07T11:17:11;25.70;83.10
2913;DHT22;1466;48.778;9.166;2023-05-07T11:19:54;25.50;83.30
2913;DHT22;1466;48.778;9.166;2023-05-07T11:25:03;25.50;84.50
2913;DHT22;1466;48.778;9.166;2023-05-07T11:27:29;25.50;84.90
2913;DHT22;1466;48.778;9.166;2023-05-07T11:29:55;25.60;85.30
2913;DHT22;1466;48.778;9.166;2023-05-07T11:32:29;25.60;83.10
2913;DHT22;1466;48.778;9.166;2023-05-07T11:34:56;25.70;82.10
2913;DHT22;1466;48.778;9.166;2023-05-07T11:37:23;25.80;80.90
2913;DHT22;1466;48.778;9.166;2023-05-07T11:39:49;25.70;80.30
2913;DHT22;1466;48.778;9.166;2023-05-07T11:42:33;25.60;80.30
2913;DHT22;1466;48.778;9.166;2023-05-07T11:44:59;25.50;80.50
2913;DHT22;1466;48.778;9.166;2023-05-07T11:47:25;25.40;80.90
2913;DHT22;1466;48.778;9.166;2023-05-07T11:49:52;25.20;83.30
2913;DHT22;1466;48.778;9.166;2023-05-07T11:52:20;25.00;84.30
2913;DHT22;1466;48.778;9.166;2023-05-07T11:54:49;24.90;86.00
2913;DHT22;1466;48.778;9.166;2023-05-07T11:57:15;24.60;87.10
2913;DHT22;1466;48.778;9.166;2023-05-07T11:59:41;24.50;87.90
2913;DHT22;1466;48.778;9.166;2023-05-07T12:02:07;24.40;88.50
2913;DHT22;1466;48.778;9.166;2023-05-07T12:04:33;24.20;90.20
2913;DHT22;1466;48.778;9.166;2023-05-07T12:06:59;24.00;91.50
2913;DHT22;1466;48.778;9.166;2023-05-07T12:09:25;23.90;92.60
2913;DHT22;1466;48.778;9.166;2023-05-07T12:11:52;23.60;94.30
2913;DHT22;1466;48.778;9.166;2023-05-07T12:14:17;23.30;96.30
2913;DHT22;1466;48.778;9.166;2023-05-07T12:16:44;22.80;98.50
2913;DHT22;1466;48.778;9.166;2023-05-07T12:19:16;22.30;98.80
2913;DHT22;1466;48.778;9.166;2023-05-07T12:21:41;21.80;97.10
2913;DHT22;1466;48.778;9.166;2023-05-07T12:24:08;21.50;97.00
2913;DHT22;1466;48.778;9.166;2023-05-07T12:26:40;21.10;98.30
2913;DHT22;1466;48.778;9.166;2023-05-07T12:29:06;20.70;99.90
2913;DHT22;1466;48.778;9.166;2023-05-07T12:31:32;20.30;99.60
2913;DHT22;1466;48.778;9.166;2023-05-07T12:33:57;19.90;99.90
2913;DHT22;1466;48.778;9.166;2023-05-07T12:36:23;19.60;99.90
2913;DHT22;1466;48.778;9.166;2023-05-07T12:38:52;19.40;99.90
2913;DHT22;1466;48.778;9.166;2023-05-07T12:41:19;19.30;99.90
2913;DHT22;1466;48.778;9.166;2023-05-07T12:43:56;19.20;99.90
2913;DHT22;1466;48.778;9.166;2023-05-07T12:46:22;19.20;99.90
2913;DHT22;1466;48.778;9.166;2023-05-07T12:48:48;19.10;99.90
2913;DHT22;1466;48.778;9.166;2023-05-07T12:51:15;19.10;99.90
2913;DHT22;1466;48.778;9.166;2023-05-07T12:53:41;18.90;99.90
2913;DHT22;1466;48.778;9.166;2023-05-07T12:56:10;18.80;99.90
2913;DHT22;1466;48.778;9.166;2023-05-07T12:58:36;17.80;99.90
2913;DHT22;1466;48.778;9.166;2023-05-07T13:01:07;16.80;99.90
2913;DHT22;1466;48.778;9.166;2023-05-07T13:03:37;16.20;99.90
2913;DHT22;1466;48.778;9.166;2023-05-07T13:06:08;15.80;99.90
2913;DHT22;1466;48.778;9.166;2023-05-07T13:08:39;15.60;99.90
2913;DHT22;1466;48.778;9.166;2023-05-07T13:11:11;15.60;99.90
2913;DHT22;1466;48.778;9.166;2023-05-07T13:13:38;15.80;99.90
2913;DHT22;1466;48.778;9.166;2023-05-07T13:16:05;15.90;99.90
2913;DHT22;1466;48.778;9.166;2023-05-07T13:18:32;15.90;99.90
2913;DHT22;1466;48.778;9.166;2023-05-07T13:20:59;16.10;99.90
2913;DHT22;1466;48.778;9.166;2023-05-07T13:23:26;16.20;99.90
2913;DHT22;1466;48.778;9.166;2023-05-07T13:25:51;16.30;99.90
2913;DHT22;1466;48.778;9.166;2023-05-07T13:28:19;16.40;99.90
2913;DHT22;1466;48.778;9.166;2023-05-07T13:30:45;16.50;99.90
2913;DHT22;1466;48.778;9.166;2023-05-07T13:33:11;16.60;99.90
2913;DHT22;1466;48.778;9.166;2023-05-07T13:35:37;16.70;99.90
2913;DHT22;1466;48.778;9.166;2023-05-07T13:38:03;16.90;99.90
2913;DHT22;1466;48.778;9.166;2023-05-07T13:40:29;16.90;99.90
2913;DHT22;1466;48.778;9.166;2023-05-07T13:42:57;16.90;99.90
2913;DHT22;1466;48.778;9.166;2023-05-07T13:45:24;16.90;99.90
2913;DHT22;1466;48.778;9.166;2023-05-07T13:47:51;16.90;99.90
2913;DHT22;1466;48.778;9.166;2023-05-07T13:50:17;16.80;99.90
2913;DHT22;1466;48.778;9.166;2023-05-07T13:52:44;16.80;99.90
2913;DHT22;1466;48.778;9.166;2023-05-07T13:55:23;16.80;99.90
2913;DHT22;1466;48.778;9.166;2023-05-07T13:58:01;16.90;99.90
2913;DHT22;1466;48.778;9.166;2023-05-07T14:00:27;17.00;99.90
2913;DHT22;1466;48.778;9.166;2023-05-07T14:02:53;17.10;99.90
2913;DHT22;1466;48.778;9.166;2023-05-07T14:05:19;17.20;99.90
2913;DHT22;1466;48.778;9.166;2023-05-07T14:07:45;17.20;99.90
2913;DHT22;1466;48.778;9.166;2023-05-07T14:10:11;17.10;99.90
2913;DHT22;1466;48.778;9.166;2023-05-07T14:12:37;17.20;99.90
2913;DHT22;1466;48.778;9.166;2023-05-07T14:15:03;17.10;99.90
2913;DHT22;1466;48.778;9.166;2023-05-07T14:17:28;17.20;99.90
2913;DHT22;1466;48.778;9.166;2023-05-07T14:19:54;17.20;99.90
2913;DHT22;1466;48.778;9.166;2023-05-07T14:22:21;17.20;99.90
2913;DHT22;1466;48.778;9.166;2023-05-07T14:24:48;17.20;99.90
2913;DHT22;1466;48.778;9.166;2023-05-07T14:27:14;17.20;99.90
2913;DHT22;1466;48.778;9.166;2023-05-07T14:29:40;17.30;99.90
2913;DHT22;1466;48.778;9.166;2023-05-07T14:32:08;17.20;99.90
2913;DHT22;1466;48.778;9.166;2023-05-07T14:34:34;17.30;99.90
2913;DHT22;1466;48.778;9.166;2023-05-07T14:37:00;17.30;99.90
2913;DHT22;1466;48.778;9.166;2023-05-07T14:39:26;17.30;99.90
2913;DHT22;1466;48.778;9.166;2023-05-07T14:41:52;17.30;99.90
2913;DHT22;1466;48.778;9.166;2023-05-07T14:44:20;17.30;99.90
2913;DHT22;1466;48.778;9.166;2023-05-07T14:46:46;17.20;99.90
2913;DHT22;1466;48.778;9.166;2023-05-07T14:49:11;17.20;99.90
2913;DHT22;1466;48.778;9.166;2023-05-07T14:51:43;17.10;99.90
2913;DHT22;1466;48.778;9.166;2023-05-07T14:54:09;17.10;99.90
2913;DHT22;1466;48.778;9.166;2023-05-07T14:56:35;17.20;99.90
2913;DHT22;1466;48.778;9.166;2023-05-07T14:59:02;17.20;99.90
2913;DHT22;1466;48.778;9.166;2023-05-07T15:01:28;17.30;99.90
2913;DHT22;1466;48.778;9.166;2023-05-07T15:03:53;17.30;99.90
2913;DHT22;1466;48.778;9.166;2023-05-07T15:06:19;17.30;99.90
2913;DHT22;1466;48.778;9.166;2023-05-07T15:08:45;17.40;99.90
2913;DHT22;1466;48.778;9.166;2023-05-07T15:11:11;17.40;99.90
2913;DHT22;1466;48.778;9.166;2023-05-07T15:13:36;17.60;99.90
2913;DHT22;1466;48.778;9.166;2023-05-07T15:16:02;17.60;99.90
2913;DHT22;1466;48.778;9.166;2023-05-07T15:18:27;17.60;99.90
2913;DHT22;1466;48.778;9.166;2023-05-07T15:20:53;17.70;99.90
2913;DHT22;1466;48.778;9.166;2023-05-07T15:23:19;17.80;99.90
2913;DHT22;1466;48.778;9.166;2023-05-07T15:25:44;17.90;99.90
2913;DHT22;1466;48.778;9.166;2023-05-07T15:28:10;18.00;99.90
2913;DHT22;1466;48.778;9.166;2023-05-07T15:30:35;17.90;99.90
2913;DHT22;1466;48.778;9.166;2023-05-07T15:33:01;17.80;99.90
2913;DHT22;1466;48.778;9.166;2023-05-07T15:35:28;17.70;99.90
2913;DHT22;1466;48.778;9.166;2023-05-07T15:37:53;17.70;99.90
2913;DHT22;1466;48.778;9.166;2023-05-07T15:40:19;17.70;99.90
2913;DHT22;1466;48.778;9.166;2023-05-07T15:42:45;17.80;99.90
2913;DHT22;1466;48.778;9.166;2023-05-07T15:45:11;17.90;99.90
2913;DHT22;1466;48.778;9.166;2023-05-07T15:47:37;18.00;99.90
2913;DHT22;1466;48.778;9.166;2023-05-07T15:50:03;18.00;99.90
2913;DHT22;1466;48.778;9.166;2023-05-07T15:52:29;18.10;99.90
2913;DHT22;1466;48.778;9.166;2023-05-07T15:54:56;18.10;99.90
2913;DHT22;1466;48.778;9.166;2023-05-07T15:57:22;18.20;99.90
2913;DHT22;1466;48.778;9.166;2023-05-07T15:59:48;18.20;99.90
2913;DHT22;1466;48.778;9.166;2023-05-07T16:02:14;18.20;99.90
2913;DHT22;1466;48.778;9.166;2023-05-07T16:04:39;18.20;99.90
2913;DHT22;1466;48.778;9.166;2023-05-07T16:07:05;18.20;99.90
2913;DHT22;1466;48.778;9.166;2023-05-07T16:09:32;18.20;99.90
2913;DHT22;1466;48.778;9.166;2023-05-07T16:11:59;18.10;99.90
2913;DHT22;1466;48.778;9.166;2023-05-07T16:14:25;18.20;99.90
2913;DHT22;1466;48.778;9.166;2023-05-07T16:16:51;18.30;99.90
2913;DHT22;1466;48.778;9.166;2023-05-07T16:19:16;18.40;99.90
2913;DHT22;1466;48.778;9.166;2023-05-07T16:21:42;18.40;99.90